GRZ581 Details

Departure: Aniak Airport (PANI)
Arrival: King Salmon Airport (PAKN)
Route: ANI SLIIM Q51 AKN


Current Weather Information
PANI 230656Z AUTO 05013G21KT 10SM BKN100 OVC120 05/M01 A2943 RMK AO2 SLP967 T00501011
PAKN 230654Z 08027G46KT 10SM -RA OVC065 08/04 A2891 RMK PK WND 10049/0637 SLP791 P0000 T00780039 VIA AUTODIAL